createdAt,value
2018-08-06T11:52:15.261Z,30.10
2018-08-06T11:54:50.711Z,28.60
2018-08-06T11:57:25.960Z,28.40
2018-08-06T12:00:00.790Z,28.60
2018-08-06T12:02:35.638Z,28.80
2018-08-06T12:05:10.197Z,28.90
2018-08-06T12:07:44.413Z,29.10
2018-08-06T12:10:19.288Z,29.30
2018-08-06T12:12:54.136Z,29.50
2018-08-06T12:15:28.332Z,30.00
2018-08-06T12:18:02.603Z,30.40
2018-08-06T12:20:38.918Z,31.00
2018-08-06T12:23:13.972Z,31.40
2018-08-06T12:25:48.767Z,31.70
2018-08-06T12:28:22.856Z,32.30
2018-08-06T12:30:57.254Z,32.90
2018-08-06T12:33:32.950Z,33.40
2018-08-06T12:36:07.960Z,33.90
2018-08-06T12:38:59.050Z,34.50
2018-08-06T12:41:35.264Z,35.00
2018-08-06T12:44:11.719Z,35.80
2018-08-06T12:46:47.157Z,36.30
2018-08-06T12:49:22.462Z,37.00
2018-08-06T12:51:58.606Z,37.80
2018-08-06T12:54:32.862Z,38.00
2018-08-06T12:57:07.134Z,37.80
2018-08-06T12:59:44.072Z,37.40
2018-08-06T13:02:19.007Z,37.30
2018-08-06T13:07:31.170Z,37.80
2018-08-06T13:16:13.232Z,38.60
2018-08-06T13:18:50.864Z,39.20
2018-08-06T13:21:26.845Z,39.90
2018-08-06T13:24:03.089Z,40.50
2018-08-06T13:26:38.739Z,40.20
2018-08-06T13:29:14.191Z,39.50
2018-08-06T13:31:51.836Z,39.10
2018-08-06T13:34:27.435Z,39.30
2018-08-06T13:37:02.558Z,40.10
2018-08-06T13:39:38.166Z,40.00
2018-08-06T13:42:13.659Z,40.30
2018-08-06T13:44:49.359Z,41.00
2018-08-06T13:47:24.870Z,41.80
2018-08-06T13:49:59.291Z,42.30
2018-08-06T13:52:36.877Z,42.90
2018-08-06T13:55:11.951Z,44.00
2018-08-06T13:57:52.124Z,44.50
2018-08-06T14:00:26.565Z,44.90
2018-08-06T14:03:03.352Z,45.10
2018-08-06T14:05:37.537Z,45.00
2018-08-06T14:08:13.295Z,45.00
2018-08-06T14:10:48.465Z,45.30
2018-08-06T14:15:59.366Z,45.60
2018-08-06T14:18:34.192Z,45.40
2018-08-06T14:21:08.675Z,44.90
2018-08-06T14:23:45.682Z,44.80
2018-08-06T14:26:21.563Z,45.50
2018-08-06T14:28:56.155Z,46.60
2018-08-06T14:31:33.129Z,47.10
2018-08-06T14:34:07.462Z,47.50
2018-08-06T14:36:43.492Z,48.40
2018-08-06T14:39:23.932Z,49.00
2018-08-06T14:44:45.221Z,48.20
2018-08-06T14:47:20.016Z,47.50
2018-08-06T14:49:59.483Z,48.50
2018-08-06T14:52:34.594Z,49.70
2018-08-06T14:55:09.486Z,50.60
2018-08-06T14:57:45.735Z,51.30
2018-08-06T15:00:22.684Z,51.70
2018-08-06T15:02:58.666Z,51.20
2018-08-06T15:05:34.073Z,50.90
2018-08-06T15:08:09.828Z,51.30
2018-08-06T15:10:49.865Z,51.40
2018-08-06T15:13:34.101Z,51.90
2018-08-06T15:16:08.870Z,52.40
2018-08-06T15:18:43.835Z,52.40
2018-08-06T15:21:19.198Z,52.00
2018-08-06T15:23:55.623Z,53.00
2018-08-06T15:26:31.106Z,53.60
2018-08-06T15:29:09.113Z,53.70
2018-08-06T15:31:44.048Z,53.70
2018-08-06T15:34:19.424Z,54.00
2018-08-06T15:36:57.544Z,54.00
2018-08-06T15:39:33.219Z,53.30
2018-08-06T15:42:07.774Z,52.50
2018-08-06T15:44:44.603Z,52.50
2018-08-06T15:47:19.810Z,53.00
2018-08-06T15:49:56.112Z,53.30
2018-08-06T15:52:30.444Z,54.30
2018-08-06T15:55:04.716Z,54.40
2018-08-06T15:57:39.169Z,54.80
2018-08-06T16:00:15.960Z,54.30
2018-08-06T16:02:50.317Z,54.50
2018-08-06T16:05:27.118Z,55.10
2018-08-06T16:08:02.560Z,55.60
2018-08-06T16:10:36.956Z,54.40
2018-08-06T16:13:11.554Z,54.70
2018-08-06T16:15:47.248Z,54.70
2018-08-06T16:18:21.847Z,54.80
2018-08-06T16:20:56.220Z,54.90
2018-08-06T16:23:31.519Z,55.50
2018-08-06T16:26:05.997Z,55.60
2018-08-06T16:28:40.439Z,55.50
2018-08-06T16:31:15.008Z,55.40
2018-08-06T16:36:25.774Z,56.00
2018-08-06T16:39:00.230Z,55.70
2018-08-06T16:41:34.302Z,53.90
2018-08-06T16:44:12.000Z,53.80
2018-08-06T16:46:47.968Z,53.10
2018-08-06T16:49:22.045Z,52.40
2018-08-06T16:51:58.444Z,53.20
2018-08-06T16:54:40.057Z,53.00
2018-08-06T16:57:14.251Z,53.80
2018-08-06T16:59:48.748Z,54.10
2018-08-06T17:02:23.577Z,54.10
2018-08-06T17:07:33.222Z,53.10
2018-08-06T17:10:10.622Z,53.10
2018-08-06T17:12:47.060Z,52.70
2018-08-06T17:15:23.108Z,52.20
2018-08-06T17:17:58.286Z,52.30
2018-08-06T17:20:33.169Z,52.60
2018-08-06T17:23:09.389Z,52.30
2018-08-06T17:25:44.361Z,52.10
2018-08-06T17:28:19.260Z,51.70
2018-08-06T17:30:54.220Z,49.70
2018-08-06T17:33:29.025Z,48.60
2018-08-06T17:36:03.892Z,47.50
2018-08-06T17:38:38.700Z,46.50
2018-08-06T17:41:13.044Z,45.00
2018-08-06T17:43:47.744Z,44.50
2018-08-06T17:46:22.029Z,44.20
2018-08-06T17:48:56.662Z,43.80
2018-08-06T17:51:31.034Z,44.50
2018-08-06T17:54:05.357Z,45.00
2018-08-06T17:56:40.697Z,42.90
2018-08-06T17:59:16.954Z,40.10
2018-08-06T18:01:51.687Z,38.00
2018-08-06T18:04:26.313Z,36.50
2018-08-06T18:07:02.981Z,35.40
2018-08-06T18:09:37.560Z,34.50
2018-08-06T18:12:13.587Z,33.80
2018-08-06T18:14:48.620Z,33.30
2018-08-06T18:17:25.115Z,32.90
2018-08-06T18:20:00.503Z,32.50
2018-08-06T18:22:37.055Z,32.20
2018-08-06T18:27:48.640Z,31.60
2018-08-06T18:30:24.509Z,31.30
2018-08-06T18:33:04.728Z,31.00
2018-08-06T18:35:39.601Z,30.70
2018-08-06T18:38:16.210Z,30.50
2018-08-06T18:40:53.817Z,30.30
2018-08-06T18:43:28.188Z,30.10
2018-08-06T18:46:04.544Z,29.90
2018-08-06T18:48:41.462Z,29.70
2018-08-06T18:53:50.709Z,29.30
2018-08-06T18:56:26.025Z,29.10
2018-08-06T18:59:00.240Z,28.90
2018-08-06T19:01:35.102Z,28.70
2018-08-06T19:04:09.595Z,28.60
2018-08-06T19:06:43.946Z,28.40
2018-08-06T19:09:19.388Z,28.20
2018-08-06T19:12:03.100Z,28.10
2018-08-06T19:14:40.382Z,27.90
2018-08-06T19:17:15.324Z,27.70
2018-08-06T19:19:50.642Z,27.60
2018-08-06T19:22:25.749Z,27.40
2018-08-06T19:25:05.422Z,27.30
2018-08-06T19:27:39.843Z,27.20
2018-08-06T19:30:15.619Z,27.00
2018-08-06T19:32:49.933Z,26.90
2018-08-06T19:35:25.591Z,26.80
2018-08-06T19:38:00.979Z,26.70
2018-08-06T19:40:35.212Z,26.60
2018-08-06T19:43:15.826Z,26.50
2018-08-06T19:45:50.526Z,26.40
2018-08-06T19:48:26.265Z,26.30
2018-08-06T19:51:04.797Z,26.20
2018-08-06T19:53:39.188Z,26.00
2018-08-06T19:56:15.992Z,25.90
2018-08-06T19:58:51.246Z,25.80
2018-08-06T20:01:25.554Z,25.70
2018-08-06T20:04:00.364Z,25.60
2018-08-06T20:06:35.079Z,25.50
2018-08-06T20:09:11.899Z,25.40
2018-08-06T20:11:46.322Z,25.30
2018-08-06T20:14:20.946Z,25.30
2018-08-06T20:16:55.081Z,25.10
2018-08-06T20:19:30.079Z,25.10
2018-08-06T20:22:04.552Z,25.00
2018-08-06T20:24:39.227Z,24.90
2018-08-06T20:27:13.579Z,24.90
2018-08-06T20:29:47.853Z,24.80
2018-08-06T20:32:22.076Z,24.70
2018-08-06T20:37:30.538Z,24.60
2018-08-06T20:40:05.787Z,24.50
2018-08-06T20:42:41.872Z,24.40
2018-08-06T20:45:18.646Z,24.40
2018-08-06T20:47:52.872Z,24.20
2018-08-06T20:50:27.264Z,24.20
2018-08-06T20:53:02.178Z,24.10
2018-08-06T20:55:37.171Z,24.00
2018-08-06T20:58:11.668Z,23.90
2018-08-06T21:00:45.974Z,23.90
2018-08-06T21:05:54.966Z,23.70
2018-08-06T21:08:29.378Z,23.60
2018-08-06T21:11:04.456Z,23.50
2018-08-06T21:13:40.332Z,23.40
2018-08-06T21:16:14.735Z,23.30
2018-08-06T21:18:49.722Z,23.30
2018-08-06T21:21:25.016Z,23.20
2018-08-06T21:23:59.440Z,23.20
2018-08-06T21:26:34.894Z,23.10
2018-08-06T21:29:09.166Z,23.10
2018-08-06T21:31:44.703Z,23.00
2018-08-06T21:34:19.537Z,22.90
2018-08-06T21:36:54.925Z,22.90
2018-08-06T21:39:29.336Z,22.80
2018-08-06T21:42:04.955Z,22.80
2018-08-06T21:44:39.576Z,22.70
2018-08-06T21:47:16.105Z,22.60
2018-08-06T21:49:52.009Z,22.50
2018-08-06T21:52:26.677Z,22.50
2018-08-06T21:55:00.885Z,22.50
2018-08-06T21:57:37.599Z,22.40
2018-08-06T22:00:27.059Z,22.40
2018-08-06T22:03:02.823Z,22.30
2018-08-06T22:05:37.733Z,22.30
2018-08-06T22:08:15.070Z,22.10
2018-08-06T22:10:49.410Z,22.20
2018-08-06T22:13:23.872Z,22.10
2018-08-06T22:15:58.193Z,22.00
2018-08-06T22:18:32.923Z,22.00
2018-08-06T22:21:10.203Z,21.90
2018-08-06T22:23:49.718Z,21.90
2018-08-06T22:26:25.900Z,21.80
2018-08-06T22:29:02.808Z,21.80
2018-08-06T22:31:40.005Z,21.80
2018-08-06T22:34:15.733Z,21.80
2018-08-06T22:36:50.864Z,21.70
2018-08-06T22:42:02.192Z,21.60
2018-08-06T22:44:36.596Z,21.60
2018-08-06T22:49:48.387Z,21.50
2018-08-06T22:52:24.768Z,21.40
2018-08-06T22:55:00.104Z,21.30
2018-08-06T22:57:35.429Z,21.30
2018-08-06T23:00:14.807Z,21.20
2018-08-06T23:02:49.661Z,21.10
2018-08-06T23:05:23.919Z,21.10
2018-08-06T23:07:59.775Z,21.10
2018-08-06T23:10:33.964Z,21.00
2018-08-06T23:15:44.488Z,20.90
2018-08-06T23:18:21.414Z,20.90
2018-08-06T23:20:55.541Z,20.80
2018-08-06T23:23:31.213Z,20.80
2018-08-06T23:26:06.060Z,20.70
2018-08-06T23:28:40.900Z,20.70
2018-08-06T23:31:15.909Z,20.60
2018-08-06T23:33:50.652Z,20.60
2018-08-06T23:36:25.704Z,20.60
2018-08-06T23:39:00.316Z,20.60
2018-08-06T23:44:09.890Z,20.50
2018-08-06T23:46:45.022Z,20.50
2018-08-06T23:49:19.227Z,20.40
2018-08-06T23:51:54.162Z,20.40
2018-08-06T23:57:06.186Z,20.30
2018-08-06T23:59:44.589Z,20.30
